Time;durP1;ratioP1;P1;durP2;ratioP2;P2;SDS_P1;SDS_P2;PMS_P1;PMS_P2;Temp;Humidity;BMP_temperature;BMP_pressure;BME280_temperature;BME280_humidity;BME280_pressure;Samples;Min_cycle;Max_cycle;Signal;HPM_P1;HPM_P2
2022/06/03 00:02:48;;;;;;;;;;;;;;;13.45;58.22;101439.78;5057990;28;19932;-78
2022/06/03 00:05:32;;;;;;;;;;;;;;;13.54;58.84;101440.47;5025444;28;20011;-78
2022/06/03 00:08:14;;;;;;;;;;;;;;;13.57;59.04;101440.38;5047299;28;20464;-77
2022/06/03 00:10:58;;;;;;;;;;;;;;;13.50;59.11;101441.41;5052947;28;19928;-76
2022/06/03 00:13:26;;;;;;;;;;;;;;;13.49;59.05;101444.06;5052728;28;20671;-76
2022/06/03 00:15:54;;;;;;;;;;;;;;;13.44;59.19;101443.28;5030617;28;19921;-77
2022/06/03 00:18:26;;;;;;;;;;;;;;;13.50;59.12;101441.41;5047612;28;19917;-73
2022/06/03 00:20:58;;;;;;;;;;;;;;;13.44;59.15;101435.47;5039798;28;19917;-78
2022/06/03 00:23:26;;;;;;;;;;;;;;;13.45;58.80;101432.81;5046312;28;19921;-73
2022/06/03 00:25:59;;;;;;;;;;;;;;;13.42;59.92;101438.13;5054158;28;20013;-73
2022/06/03 00:28:28;;;;;;;;;;;;;;;13.40;59.03;101432.09;5046998;28;20082;-79
2022/06/03 00:31:11;;;;;;;;;;;;;;;13.36;59.98;101435.63;5054988;28;19917;-79
2022/06/03 00:34:01;;;;;;;;;;;;;;;13.28;60.16;101445.41;5053323;28;19931;-79
2022/06/03 00:36:27;;;;;;;;;;;;;;;13.26;59.86;101449.75;5051846;28;19959;-79
2022/06/03 00:38:59;;;;;;;;;;;;;;;13.18;59.83;101449.06;5039058;28;19916;-79
2022/06/03 00:41:36;;;;;;;;;;;;;;;13.22;60.43;101445.53;5053677;28;19916;-79
2022/06/03 00:44:05;;;;;;;;;;;;;;;13.25;59.82;101440.25;5051430;28;19971;-79
2022/06/03 00:46:39;;;;;;;;;;;;;;;13.29;59.73;101433.19;5047704;28;19921;-79
2022/06/03 00:49:14;;;;;;;;;;;;;;;13.14;60.35;101435.22;5041943;28;19978;-79
2022/06/03 00:51:45;;;;;;;;;;;;;;;13.25;60.31;101427.19;5045063;28;19940;-79
2022/06/03 00:54:23;;;;;;;;;;;;;;;13.29;60.42;101427.97;5046980;28;20324;-79
2022/06/03 00:57:03;;;;;;;;;;;;;;;13.24;60.93;101420.25;5028660;28;19932;-79
2022/06/03 00:59:31;;;;;;;;;;;;;;;13.17;60.62;101424.72;5060011;28;19973;-79
2022/06/03 01:02:15;;;;;;;;;;;;;;;13.19;60.22;101425.53;5051237;28;20732;-79
2022/06/03 01:05:00;;;;;;;;;;;;;;;13.08;60.79;101429.28;5053894;28;19921;-79
2022/06/03 01:07:35;;;;;;;;;;;;;;;13.20;60.74;101424.66;5040182;28;19924;-79
2022/06/03 01:10:00;;;;;;;;;;;;;;;13.15;61.17;101426.53;5049894;28;20413;-79
2022/06/03 01:12:28;;;;;;;;;;;;;;;13.12;60.35;101429.19;5061494;28;19920;-79
2022/06/03 01:14:54;;;;;;;;;;;;;;;13.11;61.02;101430.06;5049007;28;19917;-79
2022/06/03 01:17:37;;;;;;;;;;;;;;;13.06;61.23;101426.72;5047485;28;19966;-79
2022/06/03 01:20:03;;;;;;;;;;;;;;;13.06;60.63;101428.47;5056166;28;19924;-79
2022/06/03 01:22:54;;;;;;;;;;;;;;;13.12;60.85;101425.72;5055619;28;19921;-79
2022/06/03 01:25:25;;;;;;;;;;;;;;;13.08;60.19;101426.66;5038678;28;20019;-79
2022/06/03 01:28:11;;;;;;;;;;;;;;;13.03;60.92;101428.53;5053615;28;19920;-79
2022/06/03 01:31:00;;;;;;;;;;;;;;;13.01;60.70;101422.50;5052135;28;20374;-79
2022/06/03 01:33:50;;;;;;;;;;;;;;;13.05;60.43;101429.34;5056350;28;20313;-79
2022/06/03 01:36:28;;;;;;;;;;;;;;;13.02;60.28;101426.78;5057348;28;19927;-79
2022/06/03 01:39:12;;;;;;;;;;;;;;;12.99;60.20;101424.25;5049379;28;19921;-79
2022/06/03 01:41:37;;;;;;;;;;;;;;;12.80;60.65;101422.91;5034524;28;20023;-79
2022/06/03 01:44:18;;;;;;;;;;;;;;;12.89;60.42;101421.00;5045978;28;20023;-79
2022/06/03 01:47:02;;;;;;;;;;;;;;;12.92;60.07;101418.31;5044001;28;19921;-79
2022/06/03 01:49:38;;;;;;;;;;;;;;;12.91;60.40;101418.34;5034940;28;20055;-79
2022/06/03 01:52:19;;;;;;;;;;;;;;;12.89;60.64;101423.59;5047582;28;19925;-79
2022/06/03 01:54:47;;;;;;;;;;;;;;;12.87;60.12;101422.75;5032739;28;20044;-79
2022/06/03 01:57:12;;;;;;;;;;;;;;;12.96;59.41;101417.34;5040204;28;20616;-79
2022/06/03 01:59:46;;;;;;;;;;;;;;;12.92;60.02;101413.09;5041508;28;19909;-79
2022/06/03 02:02:12;;;;;;;;;;;;;;;12.81;59.95;101411.59;5047442;28;19932;-79
2022/06/03 02:04:57;;;;;;;;;;;;;;;12.78;59.84;101404.69;5035140;28;19925;-79
2022/06/03 02:07:35;;;;;;;;;;;;;;;12.80;59.86;101409.88;5046963;28;20398;-79
2022/06/03 02:10:12;;;;;;;;;;;;;;;12.85;60.24;101402.81;5052058;28;19928;-79
2022/06/03 02:13:02;;;;;;;;;;;;;;;12.65;60.25;101393.66;5061437;28;20607;-79
2022/06/03 02:15:27;;;;;;;;;;;;;;;12.75;59.84;101388.25;5049531;28;20408;-79
2022/06/03 02:18:02;;;;;;;;;;;;;;;12.74;59.73;101390.00;5042764;28;19917;-79
2022/06/03 02:20:46;;;;;;;;;;;;;;;12.78;60.46;101385.59;5051089;28;19927;-79
2022/06/03 02:23:30;;;;;;;;;;;;;;;12.82;60.23;101389.84;5046739;28;20711;-77
2022/06/03 02:26:04;;;;;;;;;;;;;;;12.75;60.70;101388.25;5049500;28;20566;-77
2022/06/03 02:28:29;;;;;;;;;;;;;;;12.73;60.42;101388.28;5041940;28;19928;-77
2022/06/03 02:31:14;;;;;;;;;;;;;;;12.81;60.20;101393.34;5051406;28;19921;-77
2022/06/03 02:33:45;;;;;;;;;;;;;;;12.80;60.43;101389.88;5035756;28;19929;-77
2022/06/03 02:36:16;;;;;;;;;;;;;;;12.74;59.87;101390.00;5048524;28;19913;-77
2022/06/03 02:38:57;;;;;;;;;;;;;;;12.64;60.87;101383.25;5048021;28;20410;-77
2022/06/03 02:41:41;;;;;;;;;;;;;;;12.56;60.83;101382.53;5043219;28;20353;-76
2022/06/03 02:44:08;;;;;;;;;;;;;;;12.60;60.70;101373.78;5045303;28;19921;-77
2022/06/03 02:46:45;;;;;;;;;;;;;;;12.45;61.59;101377.47;5038751;28;20445;-76
2022/06/03 02:49:17;;;;;;;;;;;;;;;12.59;60.98;101366.84;5046655;28;19929;-76
2022/06/03 02:52:02;;;;;;;;;;;;;;;12.55;60.90;101370.41;5058730;28;19917;-77
2022/06/03 02:54:27;;;;;;;;;;;;;;;12.59;60.54;101366.84;5039364;28;19975;-77
2022/06/03 02:57:11;;;;;;;;;;;;;;;12.68;61.06;101374.50;5051434;28;19917;-77
2022/06/03 02:59:49;;;;;;;;;;;;;;;12.64;60.61;101371.06;5054415;28;19953;-77
2022/06/03 03:02:36;;;;;;;;;;;;;;;12.46;61.26;101376.59;5048802;28;20353;-77
2022/06/03 03:05:02;;;;;;;;;;;;;;;12.52;61.13;101376.53;5019793;28;20008;-76
2022/06/03 03:07:34;;;;;;;;;;;;;;;12.53;61.27;101382.59;5069037;28;20007;-76
2022/06/03 03:10:18;;;;;;;;;;;;;;;12.52;60.89;101379.13;5036642;28;20355;-76
2022/06/03 03:12:54;;;;;;;;;;;;;;;12.37;61.67;101379.38;5042402;28;20350;-76
2022/06/03 03:15:19;;;;;;;;;;;;;;;12.45;61.28;101377.47;5047252;28;20454;-77
2022/06/03 03:17:47;;;;;;;;;;;;;;;12.47;61.59;101367.91;5050525;28;19917;-77
2022/06/03 03:20:19;;;;;;;;;;;;;;;12.41;61.49;101375.84;5050128;28;19962;-77
2022/06/03 03:22:53;;;;;;;;;;;;;;;12.34;61.47;101384.66;5056684;28;19935;-77
2022/06/03 03:25:57;;;;;;;;;;;;;;;12.46;61.35;101376.59;5044299;28;19932;-77
2022/06/03 03:28:28;;;;;;;;;;;;;;;12.49;61.34;101384.38;4970270;28;20105;-77
2022/06/03 03:31:12;;;;;;;;;;;;;;;12.46;61.49;101375.75;4975773;28;19929;-77
2022/06/03 03:33:58;;;;;;;;;;;;;;;12.44;61.62;101383.59;5013656;28;19979;-77
2022/06/03 03:36:36;;;;;;;;;;;;;;;12.38;61.56;101375.91;5052645;28;19916;-77
2022/06/03 03:39:19;;;;;;;;;;;;;;;12.31;61.33;101387.31;5043831;28;19916;-77
2022/06/03 03:42:03;;;;;;;;;;;;;;;12.25;61.75;101378.75;5048574;28;19971;-77
2022/06/03 03:44:34;;;;;;;;;;;;;;;12.34;61.49;101376.84;5039413;28;19921;-77
2022/06/03 03:47:03;;;;;;;;;;;;;;;12.36;61.18;101372.47;5042847;28;19921;-77
2022/06/03 03:49:48;;;;;;;;;;;;;;;12.22;61.53;101378.81;5021880;28;19925;-77
2022/06/03 03:52:13;;;;;;;;;;;;;;;12.38;61.89;101370.69;5041178;28;20361;-77
2022/06/03 03:54:41;;;;;;;;;;;;;;;12.41;61.60;101373.25;5029868;28;19946;-77
2022/06/03 03:57:25;;;;;;;;;;;;;;;12.43;62.25;101373.19;5053300;28;19982;-76
2022/06/03 03:59:54;;;;;;;;;;;;;;;12.48;61.44;101366.19;5044426;28;19920;-78
2022/06/03 04:02:38;;;;;;;;;;;;;;;12.43;61.42;101358.44;5048279;28;19920;-73
2022/06/03 04:05:23;;;;;;;;;;;;;;;12.40;61.92;101355.88;5047314;28;19925;-73
2022/06/03 04:07:51;;;;;;;;;;;;;;;12.33;62.08;101356.03;5040357;28;19924;-76
2022/06/03 04:10:35;;;;;;;;;;;;;;;12.33;61.47;101353.44;5057077;28;19920;-77
2022/06/03 04:13:00;;;;;;;;;;;;;;;12.49;61.33;101354.84;5040664;28;19951;-78
2022/06/03 04:15:45;;;;;;;;;;;;;;;12.40;62.23;101355.00;5048733;28;19917;-78
2022/06/03 04:18:13;;;;;;;;;;;;;;;12.40;61.76;101353.28;5044447;28;19966;-77
2022/06/03 04:20:50;;;;;;;;;;;;;;;12.40;61.98;101349.81;5039827;28;19931;-78
2022/06/03 04:23:27;;;;;;;;;;;;;;;12.41;62.10;101346.31;5051588;28;20301;-78
2022/06/03 04:26:13;;;;;;;;;;;;;;;12.43;62.01;101348.00;5050559;28;19975;-78
2022/06/03 04:28:51;;;;;;;;;;;;;;;12.45;61.89;101351.44;5044223;28;19925;-78
2022/06/03 04:31:35;;;;;;;;;;;;;;;12.50;61.68;101348.75;5062108;28;19924;-79
2022/06/03 04:34:01;;;;;;;;;;;;;;;12.63;61.64;101350.28;5040251;28;20475;-79
2022/06/03 04:37:02;;;;;;;;;;;;;;;12.66;61.10;101343.22;5030581;28;19917;-79
2022/06/03 04:39:27;;;;;;;;;;;;;;;12.53;61.39;101335.69;5007985;28;19980;-79
2022/06/03 04:41:52;;;;;;;;;;;;;;;12.65;60.70;101333.72;5042057;28;19952;-79
2022/06/03 04:44:18;;;;;;;;;;;;;;;12.62;61.37;101336.38;5043448;28;19928;-79
2022/06/03 04:47:02;;;;;;;;;;;;;;;12.63;60.51;101332.03;5044013;28;19924;-73
2022/06/03 04:49:27;;;;;;;;;;;;;;;12.68;60.61;101331.91;5032977;28;19951;-73
2022/06/03 04:51:55;;;;;;;;;;;;;;;12.72;60.99;101344.00;5045666;28;19921;-73
2022/06/03 04:54:33;;;;;;;;;;;;;;;12.66;60.95;101345.81;5037497;28;19916;-78
2022/06/03 04:57:11;;;;;;;;;;;;;;;12.74;61.54;101337.00;5052289;28;19917;-78
2022/06/03 04:59:39;;;;;;;;;;;;;;;12.79;61.79;101343.84;5052352;28;19979;-79
2022/06/03 05:02:23;;;;;;;;;;;;;;;12.79;61.28;101342.97;5046148;28;19928;-78
2022/06/03 05:05:18;;;;;;;;;;;;;;;12.86;61.49;101336.75;5045789;28;20357;-78
2022/06/03 05:07:59;;;;;;;;;;;;;;;12.87;61.91;101343.69;5031650;28;19920;-78
2022/06/03 05:10:30;;;;;;;;;;;;;;;12.84;61.14;101338.53;5054857;28;20007;-78
2022/06/03 05:12:58;;;;;;;;;;;;;;;12.83;60.62;101335.06;5045108;28;19925;-78
2022/06/03 05:15:26;;;;;;;;;;;;;;;12.90;59.63;101322.78;5054071;28;19923;-78
2022/06/03 05:17:52;;;;;;;;;;;;;;;12.92;59.84;101319.22;5039281;28;19921;-78
2022/06/03 05:20:20;;;;;;;;;;;;;;;12.93;60.24;101320.94;5028973;28;19928;-78
2022/06/03 05:22:45;;;;;;;;;;;;;;;12.96;61.37;101330.44;5042371;28;19929;-78
2022/06/03 05:25:26;;;;;;;;;;;;;;;12.95;60.72;101329.59;5056898;28;19921;-78
2022/06/03 05:28:11;;;;;;;;;;;;;;;12.96;59.66;101325.22;5048610;28;19928;-77
2022/06/03 05:30:55;;;;;;;;;;;;;;;13.06;59.70;101331.94;5046844;28;19921;-77
2022/06/03 05:33:21;;;;;;;;;;;;;;;12.93;59.71;101326.13;5049939;28;19936;-77
2022/06/03 05:36:04;;;;;;;;;;;;;;;13.03;59.08;101325.06;5047395;28;20290;-77
2022/06/03 05:38:48;;;;;;;;;;;;;;;13.11;58.86;101317.03;5039315;28;19925;-76
2022/06/03 05:44:43;;;;;;;;;;;;;;;13.20;60.37;101316.84;5044449;28;19975;-77
2022/06/03 05:47:15;;;;;;;;;;;;;;;13.18;60.23;101314.28;5006006;28;20411;-76
2022/06/03 05:49:56;;;;;;;;;;;;;;;13.23;59.05;101308.94;5035743;28;19979;-76
2022/06/03 05:52:30;;;;;;;;;;;;;;;13.19;60.25;101312.53;5042730;28;19928;-73
2022/06/03 05:54:58;;;;;;;;;;;;;;;13.27;58.91;101304.53;5034113;28;19932;-73
2022/06/03 05:57:23;;;;;;;;;;;;;;;13.25;59.02;101298.50;5051815;28;19963;-73
2022/06/03 05:59:58;;;;;;;;;;;;;;;13.26;58.87;101295.81;5050430;28;19920;-73
2022/06/03 06:02:26;;;;;;;;;;;;;;;13.29;57.25;101282.72;5049501;28;19921;-73
2022/06/03 06:05:10;;;;;;;;;;;;;;;13.33;57.99;101284.38;5046072;28;19929;-73
2022/06/03 06:07:48;;;;;;;;;;;;;;;13.38;58.54;101289.47;5048102;28;19933;-79
2022/06/03 06:10:29;;;;;;;;;;;;;;;13.38;58.38;101292.94;5057010;28;19989;-79
2022/06/03 06:13:12;;;;;;;;;;;;;;;13.36;57.76;101286.03;5044160;28;20024;-77
2022/06/03 06:15:56;;;;;;;;;;;;;;;13.37;56.75;101286.00;5042684;28;19927;-73
2022/06/03 06:18:38;;;;;;;;;;;;;;;13.45;57.00;101285.81;5046020;28;20367;-76
2022/06/03 06:21:13;;;;;;;;;;;;;;;13.42;57.17;101286.75;5049989;28;19939;-76
2022/06/03 06:23:48;;;;;;;;;;;;;;;13.47;57.40;101297.06;5054964;28;19920;-77
2022/06/03 06:26:32;;;;;;;;;;;;;;;13.45;57.29;101301.47;5049233;28;19921;-77
2022/06/03 06:29:17;;;;;;;;;;;;;;;13.53;57.70;101303.00;5032290;28;19956;-76
2022/06/03 06:32:12;;;;;;;;;;;;;;;13.57;58.29;101302.03;5048080;28;19971;-78
2022/06/03 06:34:37;;;;;;;;;;;;;;;13.57;58.75;101301.19;5025423;28;20020;-78
2022/06/03 06:37:14;;;;;;;;;;;;;;;13.60;58.34;101301.09;5067390;28;20027;-78
2022/06/03 06:39:58;;;;;;;;;;;;;;;13.61;57.48;101295.81;5053229;28;19960;-78
2022/06/03 06:42:23;;;;;;;;;;;;;;;13.64;58.22;101281.88;5050368;28;19916;-78
2022/06/03 06:45:01;;;;;;;;;;;;;;;13.65;58.39;101284.41;5050593;28;20531;-77
2022/06/03 06:47:53;;;;;;;;;;;;;;;13.64;57.99;101290.53;5046998;28;20010;-79
2022/06/03 06:50:39;;;;;;;;;;;;;;;13.67;58.00;101287.03;5032804;28;19929;-79
2022/06/03 06:53:19;;;;;;;;;;;;;;;13.73;57.92;101289.47;5038988;28;19932;-79
2022/06/03 06:55:52;;;;;;;;;;;;;;;13.74;58.01;101288.56;5036206;28;19966;-79
2022/06/03 06:58:42;;;;;;;;;;;;;;;13.76;57.31;101290.25;5039701;28;19931;-78
2022/06/03 07:01:08;;;;;;;;;;;;;;;13.75;57.04;101300.75;5052795;28;19978;-78
2022/06/03 07:03:44;;;;;;;;;;;;;;;13.75;57.91;101308.59;5050588;28;21193;-78
2022/06/03 07:06:14;;;;;;;;;;;;;;;13.79;57.86;101307.59;5047716;28;19912;-78
2022/06/03 07:08:43;;;;;;;;;;;;;;;13.80;57.39;101314.53;5060378;28;19922;-78
2022/06/03 07:11:18;;;;;;;;;;;;;;;13.80;57.53;101311.06;5061214;28;19921;-78
2022/06/03 07:13:45;;;;;;;;;;;;;;;13.83;58.17;101313.59;5053561;28;19924;-78
2022/06/03 07:19:47;;;;;;;;;;;;;;;13.86;58.02;101298.72;5043638;28;20296;-78
2022/06/03 07:22:02;;;;;;;;;;;;;;;13.96;57.23;101294.09;5060329;28;19932;-73
2022/06/03 07:24:47;;;;;;;;;;;;;;;13.96;56.27;101287.13;5048426;28;19913;-73
2022/06/03 07:27:17;;;;;;;;;;;;;;;14.00;57.49;101291.34;5065353;28;19920;-74
2022/06/03 07:29:49;;;;;;;;;;;;;;;13.99;58.54;101288.81;5061681;28;19916;-73
2022/06/03 07:32:20;;;;;;;;;;;;;;;14.06;55.44;101274.66;5035893;28;20010;-73
2022/06/03 07:34:49;;;;;;;;;;;;;;;14.06;57.03;101277.28;5037580;28;20352;-73
2022/06/03 07:37:31;;;;;;;;;;;;;;;14.06;56.26;101270.31;5041612;28;20256;-76
2022/06/03 07:40:02;;;;;;;;;;;;;;;14.11;56.12;101264.97;5044047;28;20313;-76
2022/06/03 07:42:28;;;;;;;;;;;;;;;14.11;56.85;101259.75;5054811;28;19986;-77
2022/06/03 07:44:58;;;;;;;;;;;;;;;14.16;55.84;101265.69;5039523;28;20571;-77
2022/06/03 07:47:25;;;;;;;;;;;;;;;14.16;56.66;101260.47;5041388;28;19921;-77
2022/06/03 07:49:58;;;;;;;;;;;;;;;14.14;55.99;101260.53;5028073;28;20025;-77
2022/06/03 07:52:27;;;;;;;;;;;;;;;14.16;55.99;101252.63;5047419;28;19921;-76
2022/06/03 07:54:55;;;;;;;;;;;;;;;14.18;56.24;101251.66;5059409;28;19921;-76
2022/06/03 07:57:23;;;;;;;;;;;;;;;14.24;56.16;101246.28;5048151;28;19916;-76
2022/06/03 07:59:49;;;;;;;;;;;;;;;14.24;55.92;101248.03;5057556;28;19909;-79
2022/06/03 08:02:16;;;;;;;;;;;;;;;14.24;55.25;101233.22;5046861;28;20306;-79
2022/06/03 08:04:42;;;;;;;;;;;;;;;14.27;55.98;101227.91;5049923;28;19927;-73
2022/06/03 08:12:58;;;;;;;;;;;;;;;14.28;55.37;101231.38;5046236;28;19928;-73
2022/06/03 08:15:28;;;;;;;;;;;;;;;14.28;56.27;101236.59;5053002;28;19917;-73
2022/06/03 08:17:53;;;;;;;;;;;;;;;14.33;55.78;101226.84;5045995;28;19954;-73
2022/06/03 08:20:21;;;;;;;;;;;;;;;14.36;54.86;101218.06;5038815;28;19921;-73
2022/06/03 08:22:47;;;;;;;;;;;;;;;14.41;54.67;101213.59;5040451;28;19921;-73
2022/06/03 08:25:19;;;;;;;;;;;;;;;14.38;56.63;101209.31;5033646;28;21090;-78
2022/06/03 08:27:45;;;;;;;;;;;;;;;14.38;56.72;101211.91;5039805;28;19921;-78
2022/06/03 08:30:12;;;;;;;;;;;;;;;14.39;56.42;101207.53;5046243;28;20294;-77
2022/06/03 08:32:44;;;;;;;;;;;;;;;14.40;55.75;101210.09;5049017;28;19921;-78
2022/06/03 08:35:12;;;;;;;;;;;;;;;14.47;55.76;101209.03;5056148;28;19999;-78
2022/06/03 08:37:48;;;;;;;;;;;;;;;14.39;57.96;101212.75;5066766;28;19920;-77
2022/06/03 08:40:22;;;;;;;;;;;;;;;14.47;56.08;101216.00;5049828;28;19984;-77
2022/06/03 08:42:47;;;;;;;;;;;;;;;14.49;56.54;101211.59;5051015;28;20414;-77
2022/06/03 08:45:34;;;;;;;;;;;;;;;14.53;56.05;101219.28;5050399;28;19917;-77
2022/06/03 08:48:04;;;;;;;;;;;;;;;14.58;55.15;101212.16;5025815;28;19920;-76
2022/06/03 08:50:41;;;;;;;;;;;;;;;14.61;55.01;101219.94;5037262;28;19932;-77
2022/06/03 08:53:06;;;;;;;;;;;;;;;14.53;58.23;101218.44;5050556;28;19932;-76
2022/06/03 08:55:38;;;;;;;;;;;;;;;14.63;55.25;101214.63;5050411;28;19920;-76
2022/06/03 08:58:19;;;;;;;;;;;;;;;14.64;56.81;101218.97;5054028;28;19924;-77
2022/06/03 09:00:59;;;;;;;;;;;;;;;14.52;58.74;101225.44;5027233;28;19927;-73
2022/06/03 09:03:29;;;;;;;;;;;;;;;14.72;54.73;101215.22;5031042;28;19917;-73
2022/06/03 09:05:58;;;;;;;;;;;;;;;14.85;53.84;101211.34;5042034;28;20011;-73
2022/06/03 09:08:23;;;;;;;;;;;;;;;14.83;53.95;101220.13;5057271;28;19928;-73
2022/06/03 09:10:58;;;;;;;;;;;;;;;14.70;55.92;101214.41;5061890;28;19916;-73
2022/06/03 09:13:30;;;;;;;;;;;;;;;14.67;57.61;101217.13;5060041;28;20487;-73
2022/06/03 09:15:56;;;;;;;;;;;;;;;14.70;55.91;101208.31;5057702;28;19932;-73
2022/06/03 09:18:26;;;;;;;;;;;;;;;14.93;54.60;101202.38;5057947;28;20516;-73
2022/06/03 09:20:56;;;;;;;;;;;;;;;14.84;53.91;101196.56;5058876;28;19916;-73
2022/06/03 09:23:23;;;;;;;;;;;;;;;14.94;53.25;101191.91;5046675;28;20402;-73
2022/06/03 09:25:50;;;;;;;;;;;;;;;14.90;54.48;101194.63;5059525;28;20353;-73
2022/06/03 09:28:19;;;;;;;;;;;;;;;14.93;55.48;101192.78;5021621;28;20330;-73
2022/06/03 09:30:45;;;;;;;;;;;;;;;14.78;55.88;101194.13;5058015;28;19916;-73
2022/06/03 09:33:13;;;;;;;;;;;;;;;14.81;57.12;101194.03;5055308;28;19918;-73
2022/06/03 09:35:42;;;;;;;;;;;;;;;14.67;58.27;101195.34;5053063;28;19913;-73
2022/06/03 09:38:09;;;;;;;;;;;;;;;14.73;56.67;101190.78;5049020;28;19921;-73
2022/06/03 09:40:39;;;;;;;;;;;;;;;14.87;55.22;101185.13;5053727;28;19963;-73
2022/06/03 09:43:04;;;;;;;;;;;;;;;14.98;55.54;101185.63;5048890;28;19921;-79
2022/06/03 09:45:30;;;;;;;;;;;;;;;14.95;55.91;101182.28;5056386;28;20001;-79
2022/06/03 09:47:56;;;;;;;;;;;;;;;15.12;54.66;101170.38;5051273;28;19921;-79
2022/06/03 09:50:22;;;;;;;;;;;;;;;15.10;54.83;101173.91;5049321;28;19977;-74
2022/06/03 09:52:48;;;;;;;;;;;;;;;15.19;54.03;101164.00;5039362;28;19936;-76
2022/06/03 09:55:24;;;;;;;;;;;;;;;15.43;52.88;101173.63;5045845;28;19924;-77
2022/06/03 09:57:50;;;;;;;;;;;;;;;15.03;57.86;101165.44;5033355;28;19917;-77
2022/06/03 10:00:23;;;;;;;;;;;;;;;15.16;55.84;101161.47;5049116;28;19916;-77
2022/06/03 10:02:49;;;;;;;;;;;;;;;15.12;55.92;101162.50;5049000;28;19912;-76
2022/06/03 10:05:16;;;;;;;;;;;;;;;15.37;54.62;101162.50;5061134;28;19928;-76
2022/06/03 10:07:41;;;;;;;;;;;;;;;15.17;57.04;101157.13;5049626;28;19928;-76
2022/06/03 10:12:53;;;;;;;;;;;;;;;14.95;58.40;101156.97;5038269;28;19931;-77
2022/06/03 10:18:03;;;;;;;;;;;;;;;15.24;56.71;101161.25;5046804;28;19927;-78
2022/06/03 10:20:29;;;;;;;;;;;;;;;15.02;57.90;101155.00;5044833;28;19925;-78
2022/06/03 10:22:55;;;;;;;;;;;;;;;15.38;55.70;101156.38;5047860;28;19925;-78
2022/06/03 10:25:20;;;;;;;;;;;;;;;15.20;56.23;101151.78;5051435;28;19931;-79
2022/06/03 10:27:46;;;;;;;;;;;;;;;14.99;58.17;101152.50;5056929;28;19943;-73
2022/06/03 10:30:12;;;;;;;;;;;;;;;14.95;58.77;101143.88;5060180;28;19921;-74
2022/06/03 10:32:37;;;;;;;;;;;;;;;15.02;58.68;101149.78;5049104;28;19928;-73
2022/06/03 10:35:13;;;;;;;;;;;;;;;15.04;59.33;101147.94;5065319;28;19920;-73
2022/06/03 10:37:46;;;;;;;;;;;;;;;15.25;56.96;101142.00;5049471;28;19921;-73
2022/06/03 10:40:12;;;;;;;;;;;;;;;15.07;58.31;101142.63;5050689;28;19930;-73
2022/06/03 10:42:40;;;;;;;;;;;;;;;15.00;58.57;101135.91;5060086;28;19959;-73
2022/06/03 10:45:08;;;;;;;;;;;;;;;14.99;58.70;101144.63;5057654;28;19916;-73
2022/06/03 10:47:35;;;;;;;;;;;;;;;14.99;58.81;101136.78;5043810;28;20388;-73
2022/06/03 10:50:05;;;;;;;;;;;;;;;15.01;59.09;101134.97;5044888;28;19924;-73
2022/06/03 11:01:08;;;;;;;;;;;;;;;15.09;60.06;101138.22;5048440;28;19932;-73
2022/06/03 11:03:35;;;;;;;;;;;;;;;15.34;58.38;101131.22;5051470;28;19921;-77
2022/06/03 11:06:08;;;;;;;;;;;;;;;15.13;58.25;101131.94;5053311;28;20011;-75
2022/06/03 11:08:53;;;;;;;;;;;;;;;15.09;60.13;101118.13;5047140;28;19925;-76
2022/06/03 11:11:38;;;;;;;;;;;;;;;15.58;54.66;101109.41;5036787;28;20444;-78
2022/06/03 11:14:23;;;;;;;;;;;;;;;15.50;56.08;101110.59;5047988;28;19960;-79
2022/06/03 11:16:59;;;;;;;;;;;;;;;15.43;57.33;101102.09;5050396;28;19927;-73
2022/06/03 11:19:29;;;;;;;;;;;;;;;15.40;56.78;101089.13;5023146;28;19928;-76
2022/06/03 11:22:10;;;;;;;;;;;;;;;15.24;58.21;101087.97;5039534;28;20062;-78
2022/06/03 11:24:35;;;;;;;;;;;;;;;15.26;58.30;101083.53;5045461;28;19927;-78
2022/06/03 11:27:01;;;;;;;;;;;;;;;15.48;56.27;101075.75;5042683;28;19925;-78
2022/06/03 11:29:32;;;;;;;;;;;;;;;15.21;58.14;101074.97;5058821;28;19927;-78
2022/06/03 11:31:57;;;;;;;;;;;;;;;15.08;58.76;101071.94;5051804;28;20437;-78
2022/06/03 11:34:36;;;;;;;;;;;;;;;15.37;57.22;101068.28;5051752;28;19993;-76
2022/06/03 11:37:04;;;;;;;;;;;;;;;15.23;59.82;101066.16;5053629;28;19927;-77
2022/06/03 11:39:38;;;;;;;;;;;;;;;15.06;58.64;101052.81;5053610;28;19912;-77
2022/06/03 11:42:06;;;;;;;;;;;;;;;15.49;57.62;101057.38;5046503;28;19921;-77
2022/06/03 11:44:41;;;;;;;;;;;;;;;15.36;57.13;101054.34;5056825;28;20400;-77
2022/06/03 11:47:14;;;;;;;;;;;;;;;15.73;55.46;101053.84;5043594;28;19920;-73
2022/06/03 11:49:40;;;;;;;;;;;;;;;15.69;56.25;101060.09;5058479;28;19927;-78
2022/06/03 11:52:05;;;;;;;;;;;;;;;15.41;57.19;101051.56;5055805;28;19924;-78
2022/06/03 11:54:31;;;;;;;;;;;;;;;15.17;58.16;101053.28;5050646;28;19939;-78
2022/06/03 11:56:59;;;;;;;;;;;;;;;15.10;58.50;101049.19;5054123;28;19960;-78
2022/06/03 11:59:27;;;;;;;;;;;;;;;15.26;58.21;101047.75;5057256;28;19943;-76
2022/06/03 12:02:00;;;;;;;;;;;;;;;15.63;57.45;101043.78;5062117;28;19932;-79
2022/06/03 12:04:26;;;;;;;;;;;;;;;15.56;57.15;101051.00;5060128;28;19928;-79
2022/06/03 12:07:24;;;;;;;;;;;;;;;15.72;56.39;101043.44;5059943;28;19920;-79
2022/06/03 12:09:54;;;;;;;;;;;;;;;15.32;57.65;101046.66;5016717;28;19925;-79
2022/06/03 12:15:35;;;;;;;;;;;;;;;15.21;58.30;101048.81;5053159;28;20432;-79
2022/06/03 12:18:06;;;;;;;;;;;;;;;15.27;59.60;101043.38;5056754;28;19974;-79
2022/06/03 12:20:32;;;;;;;;;;;;;;;15.65;57.08;101048.03;5042366;28;19975;-79
2022/06/03 12:23:12;;;;;;;;;;;;;;;15.38;59.27;101044.69;5045029;28;19991;-79
2022/06/03 12:25:38;;;;;;;;;;;;;;;15.25;58.48;101053.00;5050812;28;20365;-74
2022/06/03 12:28:05;;;;;;;;;;;;;;;15.31;58.08;101053.66;5044739;28;19928;-73
2022/06/03 12:30:33;;;;;;;;;;;;;;;15.24;58.31;101051.31;5051565;28;19928;-73
2022/06/03 12:33:05;;;;;;;;;;;;;;;15.42;58.00;101051.50;5061768;28;19921;-74
2022/06/03 12:35:43;;;;;;;;;;;;;;;15.27;58.06;101045.97;5061041;28;20027;-74
2022/06/03 12:38:20;;;;;;;;;;;;;;;15.34;58.41;101044.84;5058442;28;19921;-76
2022/06/03 12:41:06;;;;;;;;;;;;;;;15.30;58.09;101038.84;5046170;28;19932;-77
2022/06/03 12:43:51;;;;;;;;;;;;;;;15.87;57.71;101041.09;5044549;28;20397;-76
2022/06/03 12:46:37;;;;;;;;;;;;;;;15.46;58.16;101035.66;5049548;28;19920;-76
2022/06/03 12:49:04;;;;;;;;;;;;;;;15.36;58.55;101038.63;5052336;28;19925;-77
2022/06/03 12:51:33;;;;;;;;;;;;;;;15.35;58.41;101028.22;5051493;28;19989;-77
2022/06/03 12:54:06;;;;;;;;;;;;;;;15.33;58.83;101033.50;5054780;28;20335;-79
2022/06/03 12:56:47;;;;;;;;;;;;;;;15.30;58.40;101030.16;5042294;28;19938;-79
2022/06/03 12:59:21;;;;;;;;;;;;;;;15.50;57.83;101024.19;5074409;28;19920;-76
2022/06/03 13:01:48;;;;;;;;;;;;;;;15.42;58.23;101027.09;5061871;28;19962;-77
2022/06/03 13:04:32;;;;;;;;;;;;;;;15.28;57.95;101026.72;5035472;28;19959;-78
2022/06/03 13:07:13;;;;;;;;;;;;;;;15.45;57.92;101026.13;5055933;28;19917;-73
2022/06/03 13:09:55;;;;;;;;;;;;;;;15.33;58.12;101023.03;5057109;28;19917;-73
2022/06/03 13:12:43;;;;;;;;;;;;;;;15.32;58.21;101025.72;5052382;28;19916;-73
2022/06/03 13:15:21;;;;;;;;;;;;;;;15.35;58.50;101025.59;5049750;28;19979;-76
2022/06/03 13:18:13;;;;;;;;;;;;;;;15.35;58.25;101025.59;5057213;28;19924;-79
2022/06/03 13:20:47;;;;;;;;;;;;;;;15.32;58.23;101026.59;5050454;28;19927;-77
2022/06/03 13:23:24;;;;;;;;;;;;;;;15.33;57.76;101020.41;5064097;28;19916;-76
2022/06/03 13:25:51;;;;;;;;;;;;;;;15.43;57.38;101023.56;5062973;28;19924;-76
2022/06/03 13:28:35;;;;;;;;;;;;;;;15.52;57.80;101022.34;5057105;28;19921;-77
2022/06/03 13:31:13;;;;;;;;;;;;;;;15.57;57.54;101018.66;5061161;28;19917;-76
2022/06/03 13:33:56;;;;;;;;;;;;;;;16.24;58.31;101022.19;5056244;28;19929;-76
2022/06/03 13:36:30;;;;;;;;;;;;;;;16.14;55.73;101012.09;5053977;28;19916;-77
2022/06/03 13:38:56;;;;;;;;;;;;;;;16.20;55.89;101015.34;5064230;28;19966;-77
2022/06/03 13:44:08;;;;;;;;;;;;;;;15.77;56.84;101021.44;5055573;28;20011;-76